sensor_id;sensor_type;location;lat;lon;timestamp;temperature;humidity
15879;DHT22;61999;51.514;14.614;2022-10-03T00:02:48;6.10;69.10
15879;DHT22;61999;51.514;14.614;2022-10-03T00:05:54;6.20;69.30
15879;DHT22;61999;51.514;14.614;2022-10-03T00:08:51;6.30;68.80
15879;DHT22;61999;51.514;14.614;2022-10-03T00:11:42;6.40;69.20
15879;DHT22;61999;51.514;14.614;2022-10-03T00:14:25;6.30;69.00
15879;DHT22;61999;51.514;14.614;2022-10-03T00:17:05;6.60;68.40
15879;DHT22;61999;51.514;14.614;2022-10-03T00:19:44;6.40;68.50
15879;DHT22;61999;51.514;14.614;2022-10-03T00:22:27;6.40;69.30
15879;DHT22;61999;51.514;14.614;2022-10-03T00:25:13;6.40;68.90
15879;DHT22;61999;51.514;14.614;2022-10-03T00:28:01;6.50;69.10
15879;DHT22;61999;51.514;14.614;2022-10-03T00:30:51;6.50;68.90
15879;DHT22;61999;51.514;14.614;2022-10-03T00:33:37;6.70;68.60
15879;DHT22;61999;51.514;14.614;2022-10-03T00:36:23;6.60;68.90
15879;DHT22;61999;51.514;14.614;2022-10-03T00:39:12;6.70;69.70
15879;DHT22;61999;51.514;14.614;2022-10-03T00:42:18;6.70;68.60
15879;DHT22;61999;51.514;14.614;2022-10-03T00:48:59;6.40;69.40
15879;DHT22;61999;51.514;14.614;2022-10-03T00:52:08;6.30;69.60
15879;DHT22;61999;51.514;14.614;2022-10-03T00:55:03;6.40;69.70
15879;DHT22;61999;51.514;14.614;2022-10-03T00:57:58;6.40;69.60
15879;DHT22;61999;51.514;14.614;2022-10-03T01:00:42;6.30;70.40
15879;DHT22;61999;51.514;14.614;2022-10-03T01:03:24;6.30;70.40
15879;DHT22;61999;51.514;14.614;2022-10-03T01:06:16;6.30;70.50
15879;DHT22;61999;51.514;14.614;2022-10-03T01:09:11;6.20;70.80
15879;DHT22;61999;51.514;14.614;2022-10-03T01:12:03;6.10;70.80
15879;DHT22;61999;51.514;14.614;2022-10-03T01:15:08;6.10;71.10
15879;DHT22;61999;51.514;14.614;2022-10-03T01:17:57;6.20;70.80
15879;DHT22;61999;51.514;14.614;2022-10-03T01:20:41;6.30;70.40
15879;DHT22;61999;51.514;14.614;2022-10-03T01:26:57;6.30;70.30
15879;DHT22;61999;51.514;14.614;2022-10-03T01:29:46;6.40;70.30
15879;DHT22;61999;51.514;14.614;2022-10-03T01:32:41;6.20;70.40
15879;DHT22;61999;51.514;14.614;2022-10-03T01:35:22;6.40;70.20
15879;DHT22;61999;51.514;14.614;2022-10-03T01:38:06;6.60;69.40
15879;DHT22;61999;51.514;14.614;2022-10-03T01:40:50;6.50;69.40
15879;DHT22;61999;51.514;14.614;2022-10-03T01:43:35;6.50;69.70
15879;DHT22;61999;51.514;14.614;2022-10-03T01:46:15;6.60;69.30
15879;DHT22;61999;51.514;14.614;2022-10-03T01:48:53;6.60;69.30
15879;DHT22;61999;51.514;14.614;2022-10-03T01:51:31;6.60;69.10
15879;DHT22;61999;51.514;14.614;2022-10-03T01:54:20;6.60;69.10
15879;DHT22;61999;51.514;14.614;2022-10-03T01:57:00;6.50;69.30
15879;DHT22;61999;51.514;14.614;2022-10-03T01:59:41;6.50;69.60
15879;DHT22;61999;51.514;14.614;2022-10-03T02:02:27;6.60;68.80
15879;DHT22;61999;51.514;14.614;2022-10-03T02:05:06;6.60;69.00
15879;DHT22;61999;51.514;14.614;2022-10-03T02:07:44;6.60;68.90
15879;DHT22;61999;51.514;14.614;2022-10-03T02:10:31;6.70;68.80
15879;DHT22;61999;51.514;14.614;2022-10-03T02:13:11;6.90;68.20
15879;DHT22;61999;51.514;14.614;2022-10-03T02:15:56;6.70;68.60
15879;DHT22;61999;51.514;14.614;2022-10-03T02:18:41;6.90;68.40
15879;DHT22;61999;51.514;14.614;2022-10-03T02:21:17;6.70;68.60
15879;DHT22;61999;51.514;14.614;2022-10-03T02:23:49;6.50;69.10
15879;DHT22;61999;51.514;14.614;2022-10-03T02:26:55;6.80;68.70
15879;DHT22;61999;51.514;14.614;2022-10-03T02:29:56;6.70;68.50
15879;DHT22;61999;51.514;14.614;2022-10-03T02:32:51;6.70;68.50
15879;DHT22;61999;51.514;14.614;2022-10-03T02:39:33;6.70;68.50
15879;DHT22;61999;51.514;14.614;2022-10-03T02:42:31;6.80;68.30
15879;DHT22;61999;51.514;14.614;2022-10-03T02:46:06;7.00;67.80
15879;DHT22;61999;51.514;14.614;2022-10-03T02:49:22;6.70;68.10
15879;DHT22;61999;51.514;14.614;2022-10-03T02:52:29;6.80;68.40
15879;DHT22;61999;51.514;14.614;2022-10-03T02:55:39;6.60;68.90
15879;DHT22;61999;51.514;14.614;2022-10-03T02:58:54;6.60;68.60
15879;DHT22;61999;51.514;14.614;2022-10-03T03:01:51;6.50;69.00
15879;DHT22;61999;51.514;14.614;2022-10-03T03:08:10;6.70;68.20
15879;DHT22;61999;51.514;14.614;2022-10-03T03:15:29;6.70;68.40
15879;DHT22;61999;51.514;14.614;2022-10-03T03:18:32;6.70;68.50
15879;DHT22;61999;51.514;14.614;2022-10-03T03:21:19;6.70;68.10
15879;DHT22;61999;51.514;14.614;2022-10-03T03:24:12;6.80;68.20
15879;DHT22;61999;51.514;14.614;2022-10-03T03:27:12;7.00;67.50
15879;DHT22;61999;51.514;14.614;2022-10-03T03:30:00;6.70;68.00
15879;DHT22;61999;51.514;14.614;2022-10-03T03:32:40;6.80;68.10
15879;DHT22;61999;51.514;14.614;2022-10-03T03:35:30;6.80;67.90
15879;DHT22;61999;51.514;14.614;2022-10-03T03:38:21;6.80;67.80
15879;DHT22;61999;51.514;14.614;2022-10-03T03:41:08;6.80;68.00
15879;DHT22;61999;51.514;14.614;2022-10-03T03:44:03;6.70;67.70
15879;DHT22;61999;51.514;14.614;2022-10-03T03:47:02;6.60;68.30
15879;DHT22;61999;51.514;14.614;2022-10-03T03:49:55;6.70;68.00
15879;DHT22;61999;51.514;14.614;2022-10-03T03:52:46;6.70;68.00
15879;DHT22;61999;51.514;14.614;2022-10-03T03:55:43;6.60;68.00
15879;DHT22;61999;51.514;14.614;2022-10-03T03:58:39;6.50;68.30
15879;DHT22;61999;51.514;14.614;2022-10-03T04:01:38;6.60;68.00
15879;DHT22;61999;51.514;14.614;2022-10-03T04:04:27;6.60;67.80
15879;DHT22;61999;51.514;14.614;2022-10-03T04:07:15;6.70;67.30
15879;DHT22;61999;51.514;14.614;2022-10-03T04:10:06;6.80;67.20
15879;DHT22;61999;51.514;14.614;2022-10-03T04:12:56;6.70;67.40
15879;DHT22;61999;51.514;14.614;2022-10-03T04:15:55;6.70;67.50
15879;DHT22;61999;51.514;14.614;2022-10-03T04:18:46;6.70;67.30
15879;DHT22;61999;51.514;14.614;2022-10-03T04:21:38;6.60;67.50
15879;DHT22;61999;51.514;14.614;2022-10-03T04:24:30;6.60;67.60
15879;DHT22;61999;51.514;14.614;2022-10-03T04:27:22;6.50;68.10
15879;DHT22;61999;51.514;14.614;2022-10-03T04:30:08;6.70;67.70
15879;DHT22;61999;51.514;14.614;2022-10-03T04:32:53;6.60;67.90
15879;DHT22;61999;51.514;14.614;2022-10-03T04:38:54;6.80;67.00
15879;DHT22;61999;51.514;14.614;2022-10-03T04:41:41;6.80;66.80
15879;DHT22;61999;51.514;14.614;2022-10-03T04:44:31;6.70;67.40
15879;DHT22;61999;51.514;14.614;2022-10-03T04:47:17;6.70;67.70
15879;DHT22;61999;51.514;14.614;2022-10-03T04:49:57;6.80;67.00
15879;DHT22;61999;51.514;14.614;2022-10-03T04:52:41;6.90;66.50
15879;DHT22;61999;51.514;14.614;2022-10-03T04:55:22;6.70;67.40
15879;DHT22;61999;51.514;14.614;2022-10-03T04:57:59;6.80;66.80
15879;DHT22;61999;51.514;14.614;2022-10-03T05:00:38;6.80;66.80
15879;DHT22;61999;51.514;14.614;2022-10-03T05:03:23;6.80;66.90
15879;DHT22;61999;51.514;14.614;2022-10-03T05:06:05;6.80;67.10
15879;DHT22;61999;51.514;14.614;2022-10-03T05:08:56;6.80;66.70
15879;DHT22;61999;51.514;14.614;2022-10-03T05:11:43;6.70;67.60
15879;DHT22;61999;51.514;14.614;2022-10-03T05:14:30;6.70;67.60
15879;DHT22;61999;51.514;14.614;2022-10-03T05:17:18;6.70;67.70
15879;DHT22;61999;51.514;14.614;2022-10-03T05:20:09;6.80;67.00
15879;DHT22;61999;51.514;14.614;2022-10-03T05:22:55;6.80;66.60
15879;DHT22;61999;51.514;14.614;2022-10-03T05:25:39;6.70;66.70
15879;DHT22;61999;51.514;14.614;2022-10-03T05:28:19;6.70;67.00
15879;DHT22;61999;51.514;14.614;2022-10-03T05:31:01;6.50;67.50
15879;DHT22;61999;51.514;14.614;2022-10-03T05:33:41;6.40;69.00
15879;DHT22;61999;51.514;14.614;2022-10-03T05:36:25;6.40;67.80
15879;DHT22;61999;51.514;14.614;2022-10-03T05:39:22;6.50;68.00
15879;DHT22;61999;51.514;14.614;2022-10-03T05:41:55;6.60;67.50
15879;DHT22;61999;51.514;14.614;2022-10-03T05:44:56;6.60;67.20
15879;DHT22;61999;51.514;14.614;2022-10-03T05:47:31;6.60;67.60
15879;DHT22;61999;51.514;14.614;2022-10-03T05:50:48;6.70;67.10
15879;DHT22;61999;51.514;14.614;2022-10-03T05:54:07;6.90;66.60
15879;DHT22;61999;51.514;14.614;2022-10-03T05:57:29;6.80;66.30
15879;DHT22;61999;51.514;14.614;2022-10-03T06:00:19;6.60;67.10
15879;DHT22;61999;51.514;14.614;2022-10-03T06:03:02;6.70;67.50
15879;DHT22;61999;51.514;14.614;2022-10-03T06:06:16;6.80;67.20
15879;DHT22;61999;51.514;14.614;2022-10-03T06:08:54;6.70;67.40
15879;DHT22;61999;51.514;14.614;2022-10-03T06:11:57;6.70;67.80
15879;DHT22;61999;51.514;14.614;2022-10-03T06:14:35;6.80;67.10
15879;DHT22;61999;51.514;14.614;2022-10-03T06:17:40;6.80;67.30
15879;DHT22;61999;51.514;14.614;2022-10-03T06:20:54;6.90;67.40
15879;DHT22;61999;51.514;14.614;2022-10-03T06:24:34;6.90;67.20
15879;DHT22;61999;51.514;14.614;2022-10-03T06:31:22;6.80;67.90
15879;DHT22;61999;51.514;14.614;2022-10-03T06:34:36;6.70;68.40
15879;DHT22;61999;51.514;14.614;2022-10-03T06:37:44;6.80;68.30
15879;DHT22;61999;51.514;14.614;2022-10-03T06:41:14;6.80;68.60
15879;DHT22;61999;51.514;14.614;2022-10-03T06:44:10;6.90;68.60
15879;DHT22;61999;51.514;14.614;2022-10-03T06:47:19;6.80;68.60
15879;DHT22;61999;51.514;14.614;2022-10-03T06:50:12;6.80;68.80
15879;DHT22;61999;51.514;14.614;2022-10-03T06:53:22;6.90;68.70
15879;DHT22;61999;51.514;14.614;2022-10-03T07:03:03;6.90;68.50
15879;DHT22;61999;51.514;14.614;2022-10-03T07:06:11;7.00;68.30
15879;DHT22;61999;51.514;14.614;2022-10-03T07:12:47;7.10;67.90
15879;DHT22;61999;51.514;14.614;2022-10-03T07:16:13;6.70;69.10
15879;DHT22;61999;51.514;14.614;2022-10-03T07:26:14;6.70;69.20
15879;DHT22;61999;51.514;14.614;2022-10-03T07:32:18;6.60;68.80
15879;DHT22;61999;51.514;14.614;2022-10-03T07:35:38;6.60;68.80
15879;DHT22;61999;51.514;14.614;2022-10-03T07:38:46;6.60;69.10
15879;DHT22;61999;51.514;14.614;2022-10-03T07:41:46;6.70;69.10
15879;DHT22;61999;51.514;14.614;2022-10-03T07:45:04;6.90;68.30
15879;DHT22;61999;51.514;14.614;2022-10-03T07:48:07;7.00;68.30
15879;DHT22;61999;51.514;14.614;2022-10-03T07:51:17;7.00;68.60
15879;DHT22;61999;51.514;14.614;2022-10-03T07:54:13;7.20;67.70
15879;DHT22;61999;51.514;14.614;2022-10-03T08:00:04;7.30;67.70
15879;DHT22;61999;51.514;14.614;2022-10-03T08:03:00;7.50;66.10
15879;DHT22;61999;51.514;14.614;2022-10-03T08:06:16;7.40;66.80
15879;DHT22;61999;51.514;14.614;2022-10-03T08:09:14;7.40;66.50
15879;DHT22;61999;51.514;14.614;2022-10-03T08:15:09;7.40;66.90
15879;DHT22;61999;51.514;14.614;2022-10-03T08:20:59;7.50;66.80
15879;DHT22;61999;51.514;14.614;2022-10-03T08:23:53;7.40;66.70
15879;DHT22;61999;51.514;14.614;2022-10-03T08:26:49;7.50;66.50
15879;DHT22;61999;51.514;14.614;2022-10-03T08:30:05;7.50;66.40
15879;DHT22;61999;51.514;14.614;2022-10-03T08:33:06;7.80;64.60
15879;DHT22;61999;51.514;14.614;2022-10-03T08:36:31;7.50;65.40
15879;DHT22;61999;51.514;14.614;2022-10-03T08:39:39;7.40;65.00
15879;DHT22;61999;51.514;14.614;2022-10-03T08:42:46;7.40;65.30
15879;DHT22;61999;51.514;14.614;2022-10-03T08:46:08;7.50;64.50
15879;DHT22;61999;51.514;14.614;2022-10-03T08:49:23;7.30;64.80
15879;DHT22;61999;51.514;14.614;2022-10-03T08:52:29;7.40;64.90
15879;DHT22;61999;51.514;14.614;2022-10-03T08:55:28;7.30;64.80
15879;DHT22;61999;51.514;14.614;2022-10-03T09:02:05;6.90;66.10
15879;DHT22;61999;51.514;14.614;2022-10-03T09:05:24;7.00;65.80
15879;DHT22;61999;51.514;14.614;2022-10-03T09:08:40;7.20;65.50
15879;DHT22;61999;51.514;14.614;2022-10-03T09:11:46;7.30;65.30
15879;DHT22;61999;51.514;14.614;2022-10-03T09:14:48;7.40;64.10
15879;DHT22;61999;51.514;14.614;2022-10-03T09:18:09;7.40;64.30
15879;DHT22;61999;51.514;14.614;2022-10-03T09:21:16;7.30;64.50
15879;DHT22;61999;51.514;14.614;2022-10-03T09:24:22;7.20;65.40
15879;DHT22;61999;51.514;14.614;2022-10-03T09:27:35;7.20;65.60
15879;DHT22;61999;51.514;14.614;2022-10-03T09:30:21;7.40;64.90
15879;DHT22;61999;51.514;14.614;2022-10-03T09:36:41;7.30;65.20
15879;DHT22;61999;51.514;14.614;2022-10-03T09:39:58;7.40;64.80
15879;DHT22;61999;51.514;14.614;2022-10-03T09:46:26;7.40;64.90
15879;DHT22;61999;51.514;14.614;2022-10-03T09:53:07;7.50;64.40
15879;DHT22;61999;51.514;14.614;2022-10-03T09:59:23;7.90;63.30
15879;DHT22;61999;51.514;14.614;2022-10-03T10:02:20;8.00;62.40
15879;DHT22;61999;51.514;14.614;2022-10-03T10:05:38;7.90;62.70
15879;DHT22;61999;51.514;14.614;2022-10-03T10:12:08;7.80;63.70
15879;DHT22;61999;51.514;14.614;2022-10-03T10:15:17;7.90;63.50
15879;DHT22;61999;51.514;14.614;2022-10-03T10:18:30;8.10;62.90
15879;DHT22;61999;51.514;14.614;2022-10-03T10:21:36;8.10;62.50
15879;DHT22;61999;51.514;14.614;2022-10-03T10:24:36;8.10;62.40
15879;DHT22;61999;51.514;14.614;2022-10-03T10:27:59;8.00;62.80
15879;DHT22;61999;51.514;14.614;2022-10-03T10:31:18;8.30;62.40
15879;DHT22;61999;51.514;14.614;2022-10-03T10:34:59;8.30;61.50
15879;DHT22;61999;51.514;14.614;2022-10-03T10:38:17;8.10;62.70
15879;DHT22;61999;51.514;14.614;2022-10-03T10:41:31;8.30;61.60
15879;DHT22;61999;51.514;14.614;2022-10-03T10:44:45;8.10;62.60
15879;DHT22;61999;51.514;14.614;2022-10-03T10:51:29;8.10;63.70
15879;DHT22;61999;51.514;14.614;2022-10-03T10:58:06;8.30;63.20
15879;DHT22;61999;51.514;14.614;2022-10-03T11:08:26;8.70;61.00
15879;DHT22;61999;51.514;14.614;2022-10-03T11:19:09;8.80;61.40
15879;DHT22;61999;51.514;14.614;2022-10-03T11:29:57;9.30;60.50
15879;DHT22;61999;51.514;14.614;2022-10-03T11:39:23;10.40;59.30
15879;DHT22;61999;51.514;14.614;2022-10-03T11:42:05;10.80;56.40
15879;DHT22;61999;51.514;14.614;2022-10-03T11:44:52;11.00;55.40
15879;DHT22;61999;51.514;14.614;2022-10-03T11:47:38;10.90;55.70
15879;DHT22;61999;51.514;14.614;2022-10-03T11:50:25;10.90;54.40
15879;DHT22;61999;51.514;14.614;2022-10-03T11:53:11;10.90;53.90
15879;DHT22;61999;51.514;14.614;2022-10-03T11:55:48;11.10;54.20
15879;DHT22;61999;51.514;14.614;2022-10-03T11:58:40;11.20;55.30
15879;DHT22;61999;51.514;14.614;2022-10-03T12:01:28;11.60;54.20
15879;DHT22;61999;51.514;14.614;2022-10-03T12:04:19;11.90;50.90
15879;DHT22;61999;51.514;14.614;2022-10-03T12:07:00;11.90;51.70
15879;DHT22;61999;51.514;14.614;2022-10-03T12:09:59;12.30;50.50
15879;DHT22;61999;51.514;14.614;2022-10-03T12:12:37;12.30;50.60
15879;DHT22;61999;51.514;14.614;2022-10-03T12:15:29;12.20;50.70
15879;DHT22;61999;51.514;14.614;2022-10-03T12:18:05;12.20;49.50
15879;DHT22;61999;51.514;14.614;2022-10-03T12:20:52;12.00;50.40
15879;DHT22;61999;51.514;14.614;2022-10-03T12:23:53;11.70;50.60
15879;DHT22;61999;51.514;14.614;2022-10-03T12:26:39;11.50;50.30
15879;DHT22;61999;51.514;14.614;2022-10-03T12:29:15;11.00;52.00
15879;DHT22;61999;51.514;14.614;2022-10-03T12:31:58;10.80;52.90
15879;DHT22;61999;51.514;14.614;2022-10-03T12:34:38;10.80;52.70
15879;DHT22;61999;51.514;14.614;2022-10-03T12:37:31;10.70;54.10
15879;DHT22;61999;51.514;14.614;2022-10-03T12:40:22;10.90;56.40
15879;DHT22;61999;51.514;14.614;2022-10-03T12:43:07;11.50;53.70
15879;DHT22;61999;51.514;14.614;2022-10-03T12:45:54;11.90;54.30
15879;DHT22;61999;51.514;14.614;2022-10-03T12:48:39;12.40;50.30
15879;DHT22;61999;51.514;14.614;2022-10-03T12:51:20;12.50;51.10
15879;DHT22;61999;51.514;14.614;2022-10-03T12:54:06;12.50;51.40
15879;DHT22;61999;51.514;14.614;2022-10-03T12:56:46;12.50;50.60
15879;DHT22;61999;51.514;14.614;2022-10-03T12:59:27;12.50;51.40
15879;DHT22;61999;51.514;14.614;2022-10-03T13:02:20;12.60;51.10
15879;DHT22;61999;51.514;14.614;2022-10-03T13:05:21;12.90;49.10
15879;DHT22;61999;51.514;14.614;2022-10-03T13:08:00;12.90;49.60
15879;DHT22;61999;51.514;14.614;2022-10-03T13:10:37;13.00;48.00
15879;DHT22;61999;51.514;14.614;2022-10-03T13:13:21;12.80;47.50
15879;DHT22;61999;51.514;14.614;2022-10-03T13:16:03;12.50;49.30
15879;DHT22;61999;51.514;14.614;2022-10-03T13:18:53;12.40;49.40
15879;DHT22;61999;51.514;14.614;2022-10-03T13:21:44;12.30;49.90
15879;DHT22;61999;51.514;14.614;2022-10-03T13:24:30;12.30;49.80
15879;DHT22;61999;51.514;14.614;2022-10-03T13:30:04;12.50;49.90
15879;DHT22;61999;51.514;14.614;2022-10-03T13:32:39;12.70;48.80
15879;DHT22;61999;51.514;14.614;2022-10-03T13:35:24;12.60;49.00
15879;DHT22;61999;51.514;14.614;2022-10-03T13:38:34;12.50;49.60
15879;DHT22;61999;51.514;14.614;2022-10-03T13:41:18;12.40;48.80
15879;DHT22;61999;51.514;14.614;2022-10-03T13:43:57;12.30;49.50
15879;DHT22;61999;51.514;14.614;2022-10-03T13:46:34;12.00;50.10
15879;DHT22;61999;51.514;14.614;2022-10-03T13:49:12;12.00;50.30
15879;DHT22;61999;51.514;14.614;2022-10-03T13:51:54;11.90;50.90
15879;DHT22;61999;51.514;14.614;2022-10-03T13:54:54;11.70;51.40
15879;DHT22;61999;51.514;14.614;2022-10-03T13:57:37;11.70;51.80
15879;DHT22;61999;51.514;14.614;2022-10-03T14:00:12;12.00;52.00
15879;DHT22;61999;51.514;14.614;2022-10-03T14:03:12;12.10;51.80
15879;DHT22;61999;51.514;14.614;2022-10-03T14:05:56;12.40;50.90
15879;DHT22;61999;51.514;14.614;2022-10-03T14:08:54;12.40;50.90
15879;DHT22;61999;51.514;14.614;2022-10-03T14:11:40;12.60;50.60
15879;DHT22;61999;51.514;14.614;2022-10-03T14:14:40;12.30;51.30
15879;DHT22;61999;51.514;14.614;2022-10-03T14:17:26;12.10;52.00
15879;DHT22;61999;51.514;14.614;2022-10-03T14:20:11;12.20;52.00
15879;DHT22;61999;51.514;14.614;2022-10-03T14:23:08;12.30;51.50
15879;DHT22;61999;51.514;14.614;2022-10-03T14:25:50;12.10;52.00
15879;DHT22;61999;51.514;14.614;2022-10-03T14:28:33;11.80;52.90
15879;DHT22;61999;51.514;14.614;2022-10-03T14:31:09;11.50;53.60
15879;DHT22;61999;51.514;14.614;2022-10-03T14:33:46;11.50;53.80
15879;DHT22;61999;51.514;14.614;2022-10-03T14:36:37;11.40;53.90
15879;DHT22;61999;51.514;14.614;2022-10-03T14:39:23;11.40;54.10
15879;DHT22;61999;51.514;14.614;2022-10-03T14:42:26;11.20;54.50
15879;DHT22;61999;51.514;14.614;2022-10-03T14:45:02;11.30;54.40
15879;DHT22;61999;51.514;14.614;2022-10-03T14:47:38;11.20;54.50
15879;DHT22;61999;51.514;14.614;2022-10-03T14:50:15;11.20;55.10
15879;DHT22;61999;51.514;14.614;2022-10-03T14:52:49;11.20;54.90
15879;DHT22;61999;51.514;14.614;2022-10-03T14:55:30;11.30;54.80
15879;DHT22;61999;51.514;14.614;2022-10-03T14:58:02;11.40;54.80
15879;DHT22;61999;51.514;14.614;2022-10-03T15:00:40;11.20;55.00
15879;DHT22;61999;51.514;14.614;2022-10-03T15:03:39;11.20;55.30
15879;DHT22;61999;51.514;14.614;2022-10-03T15:06:21;11.10;55.40
15879;DHT22;61999;51.514;14.614;2022-10-03T15:09:03;11.10;55.20
15879;DHT22;61999;51.514;14.614;2022-10-03T15:11:43;11.00;55.70
15879;DHT22;61999;51.514;14.614;2022-10-03T15:14:14;11.00;55.90
15879;DHT22;61999;51.514;14.614;2022-10-03T15:16:48;11.10;55.90
15879;DHT22;61999;51.514;14.614;2022-10-03T15:19:24;11.20;56.10
15879;DHT22;61999;51.514;14.614;2022-10-03T15:22:03;11.60;55.00
15879;DHT22;61999;51.514;14.614;2022-10-03T15:24:39;11.40;55.20
15879;DHT22;61999;51.514;14.614;2022-10-03T15:27:13;11.50;54.80
15879;DHT22;61999;51.514;14.614;2022-10-03T15:29:49;11.50;54.70
15879;DHT22;61999;51.514;14.614;2022-10-03T15:32:23;11.60;54.60
15879;DHT22;61999;51.514;14.614;2022-10-03T15:34:58;11.50;54.60
15879;DHT22;61999;51.514;14.614;2022-10-03T15:37:30;11.50;54.80
15879;DHT22;61999;51.514;14.614;2022-10-03T15:40:06;11.50;54.50
15879;DHT22;61999;51.514;14.614;2022-10-03T15:42:52;11.30;54.80
15879;DHT22;61999;51.514;14.614;2022-10-03T15:45:31;11.20;55.30
15879;DHT22;61999;51.514;14.614;2022-10-03T15:48:04;11.00;55.60
15879;DHT22;61999;51.514;14.614;2022-10-03T15:50:39;11.10;55.50
15879;DHT22;61999;51.514;14.614;2022-10-03T15:53:14;10.90;55.40
15879;DHT22;61999;51.514;14.614;2022-10-03T15:56:09;10.80;56.20
15879;DHT22;61999;51.514;14.614;2022-10-03T15:58:42;10.90;55.70
15879;DHT22;61999;51.514;14.614;2022-10-03T16:01:18;11.00;55.70
15879;DHT22;61999;51.514;14.614;2022-10-03T16:03:54;11.00;55.70
15879;DHT22;61999;51.514;14.614;2022-10-03T16:06:31;10.90;56.00
15879;DHT22;61999;51.514;14.614;2022-10-03T16:09:13;10.80;56.20
15879;DHT22;61999;51.514;14.614;2022-10-03T16:11:58;10.60;56.70
15879;DHT22;61999;51.514;14.614;2022-10-03T16:14:40;10.60;57.60
15879;DHT22;61999;51.514;14.614;2022-10-03T16:17:17;10.60;56.60
15879;DHT22;61999;51.514;14.614;2022-10-03T16:19:58;10.60;56.70
15879;DHT22;61999;51.514;14.614;2022-10-03T16:22:39;10.50;56.60
15879;DHT22;61999;51.514;14.614;2022-10-03T16:25:13;10.50;56.30
15879;DHT22;61999;51.514;14.614;2022-10-03T16:27:52;10.30;56.90
15879;DHT22;61999;51.514;14.614;2022-10-03T16:30:27;10.30;56.80
15879;DHT22;61999;51.514;14.614;2022-10-03T16:33:02;10.20;57.00
15879;DHT22;61999;51.514;14.614;2022-10-03T16:35:46;10.10;57.20
15879;DHT22;61999;51.514;14.614;2022-10-03T16:38:20;10.20;56.80
15879;DHT22;61999;51.514;14.614;2022-10-03T16:40:52;10.00;57.40
15879;DHT22;61999;51.514;14.614;2022-10-03T16:43:24;10.10;57.10
15879;DHT22;61999;51.514;14.614;2022-10-03T16:45:54;10.10;57.20
15879;DHT22;61999;51.514;14.614;2022-10-03T16:48:28;9.90;57.30
15879;DHT22;61999;51.514;14.614;2022-10-03T16:51:19;9.80;57.70
15879;DHT22;61999;51.514;14.614;2022-10-03T16:53:52;9.80;57.80
15879;DHT22;61999;51.514;14.614;2022-10-03T16:56:24;9.90;57.90
15879;DHT22;61999;51.514;14.614;2022-10-03T16:59:05;9.90;57.60
15879;DHT22;61999;51.514;14.614;2022-10-03T17:01:42;9.90;57.70
15879;DHT22;61999;51.514;14.614;2022-10-03T17:04:21;9.90;57.50
15879;DHT22;61999;51.514;14.614;2022-10-03T17:06:55;9.90;57.70
15879;DHT22;61999;51.514;14.614;2022-10-03T17:09:32;9.90;57.80
15879;DHT22;61999;51.514;14.614;2022-10-03T17:12:11;9.60;58.30
15879;DHT22;61999;51.514;14.614;2022-10-03T17:14:44;9.80;58.00
15879;DHT22;61999;51.514;14.614;2022-10-03T17:17:24;9.60;58.30
15879;DHT22;61999;51.514;14.614;2022-10-03T17:19:59;9.60;58.50
15879;DHT22;61999;51.514;14.614;2022-10-03T17:22:37;9.40;59.20
15879;DHT22;61999;51.514;14.614;2022-10-03T17:25:36;9.50;58.70
15879;DHT22;61999;51.514;14.614;2022-10-03T17:28:13;9.50;58.90
15879;DHT22;61999;51.514;14.614;2022-10-03T17:30:53;9.40;59.10
15879;DHT22;61999;51.514;14.614;2022-10-03T17:33:33;9.40;59.10
15879;DHT22;61999;51.514;14.614;2022-10-03T17:39:45;9.50;59.40
15879;DHT22;61999;51.514;14.614;2022-10-03T17:45:41;9.50;59.30
15879;DHT22;61999;51.514;14.614;2022-10-03T17:48:15;9.40;59.50
15879;DHT22;61999;51.514;14.614;2022-10-03T17:50:53;9.40;59.90
15879;DHT22;61999;51.514;14.614;2022-10-03T17:53:27;9.30;59.90
15879;DHT22;61999;51.514;14.614;2022-10-03T17:56:02;9.40;59.70
15879;DHT22;61999;51.514;14.614;2022-10-03T17:58:39;9.50;59.60
15879;DHT22;61999;51.514;14.614;2022-10-03T18:01:14;9.50;59.60
15879;DHT22;61999;51.514;14.614;2022-10-03T18:03:48;9.30;60.00
15879;DHT22;61999;51.514;14.614;2022-10-03T18:06:37;9.50;60.00
15879;DHT22;61999;51.514;14.614;2022-10-03T18:09:27;9.60;59.40
15879;DHT22;61999;51.514;14.614;2022-10-03T18:12:11;9.50;59.70
15879;DHT22;61999;51.514;14.614;2022-10-03T18:14:54;9.50;59.90
15879;DHT22;61999;51.514;14.614;2022-10-03T18:17:47;9.50;59.70
15879;DHT22;61999;51.514;14.614;2022-10-03T18:20:38;9.50;59.80
15879;DHT22;61999;51.514;14.614;2022-10-03T18:23:20;9.40;59.70
15879;DHT22;61999;51.514;14.614;2022-10-03T18:26:12;9.30;60.00
15879;DHT22;61999;51.514;14.614;2022-10-03T18:28:59;9.50;60.00
15879;DHT22;61999;51.514;14.614;2022-10-03T18:31:42;9.50;60.60
15879;DHT22;61999;51.514;14.614;2022-10-03T18:34:19;9.40;60.90
15879;DHT22;61999;51.514;14.614;2022-10-03T18:36:52;9.50;61.40
15879;DHT22;61999;51.514;14.614;2022-10-03T18:39:24;9.40;61.20
15879;DHT22;61999;51.514;14.614;2022-10-03T18:41:56;9.30;61.50
15879;DHT22;61999;51.514;14.614;2022-10-03T18:44:29;9.20;62.10
15879;DHT22;61999;51.514;14.614;2022-10-03T18:47:10;9.20;62.00
15879;DHT22;61999;51.514;14.614;2022-10-03T18:49:51;9.30;61.70
15879;DHT22;61999;51.514;14.614;2022-10-03T18:52:36;9.20;61.70
15879;DHT22;61999;51.514;14.614;2022-10-03T18:55:15;9.20;61.70
15879;DHT22;61999;51.514;14.614;2022-10-03T18:57:53;9.00;62.30
15879;DHT22;61999;51.514;14.614;2022-10-03T19:00:37;8.90;62.80
15879;DHT22;61999;51.514;14.614;2022-10-03T19:03:18;8.90;62.90
15879;DHT22;61999;51.514;14.614;2022-10-03T19:05:54;9.00;63.30
15879;DHT22;61999;51.514;14.614;2022-10-03T19:08:33;9.00;62.70
15879;DHT22;61999;51.514;14.614;2022-10-03T19:11:18;9.10;62.80
15879;DHT22;61999;51.514;14.614;2022-10-03T19:13:57;9.10;62.30
15879;DHT22;61999;51.514;14.614;2022-10-03T19:16:57;9.20;62.40
15879;DHT22;61999;51.514;14.614;2022-10-03T19:19:49;9.10;62.50
15879;DHT22;61999;51.514;14.614;2022-10-03T19:22:27;8.90;63.00
15879;DHT22;61999;51.514;14.614;2022-10-03T19:25:00;9.00;63.10
15879;DHT22;61999;51.514;14.614;2022-10-03T19:27:40;9.00;63.20
15879;DHT22;61999;51.514;14.614;2022-10-03T19:30:18;9.10;63.30
15879;DHT22;61999;51.514;14.614;2022-10-03T19:32:54;9.10;63.00
15879;DHT22;61999;51.514;14.614;2022-10-03T19:35:26;9.30;62.90
15879;DHT22;61999;51.514;14.614;2022-10-03T19:38:00;9.20;62.50
15879;DHT22;61999;51.514;14.614;2022-10-03T19:40:43;9.10;62.50
15879;DHT22;61999;51.514;14.614;2022-10-03T19:43:33;8.90;63.20
15879;DHT22;61999;51.514;14.614;2022-10-03T19:46:17;8.80;63.30
15879;DHT22;61999;51.514;14.614;2022-10-03T19:49:24;8.70;63.70
15879;DHT22;61999;51.514;14.614;2022-10-03T19:52:16;8.70;63.70